Weather observations for the past three days for
New Ulm Municipal Airport
Metric (Imperial)
Date Time (cdt) Wind (kph) Vis. (km) Weather Sky Cond. Temperature (ºC) Relative Humidity Wind Chill (°C) Heat Index (°C) Pressure Precipitation (cm)
Air Dwpt 6 hour altimeter (cm) sea level (mb) 1 hr 3 hr 6 hr
Max. Min.
04 01:55 SW 15 16.09 Fair CLR 12 3 54% 75.08 0.0
04 01:35 SW 15 16.09 Fair CLR 11 3 58% 75.11 0.0
04 01:15 SW 15 16.09 Fair CLR 11 3 58% 75.13 0.0
04 00:55 SW 15 16.09 Fair CLR 11 3 58% 75.18 0.0
04 00:35 SW 13 16.09 Fair CLR 12 3 54% 75.21 0.0
04 00:15 SW 15 16.09 Fair CLR 12 3 54% 75.21 0.0
03 23:55 SW 13 16.09 Fair CLR 13 2 47% 75.23 0.0
03 23:35 SW 13 16.09 Fair CLR 12 3 54% 75.26 0.0
03 23:15 SW 13 16.09 Fair CLR 13 3 51% 75.26 0.0
03 22:55 SW 11 16.09 Fair CLR 14 3 48% 75.31 0.0
03 22:35 SW 7 16.09 Fair CLR 12 3 54% 75.34 0.0
03 22:15 SW 7 16.09 Fair CLR 13 3 51% 75.36 0.0
03 21:55 SW 7 16.09 Fair CLR 14 3 48% 75.36 0.0
03 21:35 SW 6 16.09 Fair CLR 13 3 51% 75.36 0.0
03 21:15 S 6 16.09 Fair CLR 17 2 37% 75.39 0.0
03 20:55 Calm 16.09 Fair CLR 18 2 34% 75.39 0.0
03 20:35 Calm 16.09 Fair CLR 18 2 34% 75.39 0.0
03 20:15 Calm 16.09 Fair CLR 18 3 37% 75.39 0.0
03 19:55 NW 6 16.09 Fair CLR 19 3 35% 75.39 0.0
03 19:35 NW 6 16.09 Fair CLR 19 4 37% 75.39 0.0
03 19:15 NW 9 16.09 Fair CLR 20 3 33% 75.41 0.0
03 18:55 NW 15 16.09 Fair CLR 21 4 33% 75.44 0.0
03 18:35 NW 20 16.09 Fair CLR 21 3 31% 75.46 0.0
03 18:15 NW 20 G 28 16.09 Fair CLR 21 3 31% 75.46 0.0
03 17:55 NW 22 G 31 16.09 Fair CLR 21 3 31% 75.46 0.0
03 17:15 NW 22 G 31 16.09 Fair CLR 22 4 31% 75.49 0.0
03 16:55 NW 28 G 41 16.09 Fair CLR 21 4 33% 75.49 0.0
03 16:35 NW 28 16.09 Fair CLR 21 4 33% 75.49 0.0
03 16:15 W 31 G 43 16.09 Fair CLR 22 4 31% 75.51 0.0
03 15:55 W 26 G 35 16.09 Fair CLR 21 4 33% 75.54 0.0
03 15:35 NW 24 G 41 16.09 Fair CLR 21 5 35% 75.54 0.0
03 15:15 NW 30 G 41 16.09 Fair CLR 21 5 35% 75.57 0.0
03 14:55 NW 24 G 43 16.09 Fair CLR 21 5 35% 75.59 0.0
03 14:35 NW 35 G 44 16.09 Fair and Breezy CLR 21 5 35% 75.59 0.0
03 14:15 NW 35 G 46 16.09 Fair and Breezy CLR 21 5 35% 75.62 0.0
03 13:55 NW 35 G 46 16.09 Fair and Breezy CLR 21 6 38% 75.62 0.0
03 13:35 NW 30 G 46 16.09 Fair CLR 20 5 38% 75.64 0.0
03 13:15 N 24 G 41 16.09 Fair CLR 20 4 35% 75.64 0.0
03 12:55 NW 19 G 26 16.09 Fair CLR 19 5 40% 75.67 0.0
03 12:35 NW 28 G 52 16.09 Fair CLR 19 5 40% 75.67 0.0
03 12:15 NW 33 G 46 16.09 Fair and Breezy CLR 19 5 40% 75.67 0.0
03 11:35 NW 26 G 44 16.09 Fair CLR 19 6 43% 75.69 0.0
03 11:15 NW 30 G 43 16.09 Fair CLR 19 6 43% 75.67 0.0
03 10:55 NW 26 G 43 16.09 Fair CLR 18 7 49% 75.67 0.0
03 10:35 NW 35 G 43 16.09 Fair and Breezy CLR 18 7 49% 75.67 0.0
03 10:15 NW 31 16.09 Fair CLR 17 6 49% 75.67 0.0
03 09:55 NW 24 G 33 16.09 Fair CLR 17 6 49% 75.67 0.0
03 09:35 NW 28 G 35 16.09 Fair CLR 16 6 52% 75.67 0.0
03 09:15 NW 26 G 35 16.09 Fair CLR 14 6 59% 75.64 0.0
03 08:55 NW 26 G 39 16.09 Fair CLR 14 5 55% 75.64 0.0
03 08:35 NW 26 G 39 16.09 Fair CLR 13 5 59% 75.62 0.0
03 08:15 NW 28 16.09 Fair CLR 13 4 55% 75.59 0.0
03 07:55 NW 28 G 41 16.09 Fair CLR 12 4 58% 75.57 0.0
03 07:35 NW 26 G 41 16.09 Fair CLR 11 4 62% 75.54 0.0
03 07:15 NW 30 G 35 16.09 Fair CLR 10 4 67% 7 75.49 0.0
03 06:55 NW 26 G 37 16.09 Fair CLR 9 4 71% 6 75.46 0.0
03 06:35 NW 24 16.09 Fair CLR 9 4 71% 6 75.46 0.0
03 06:15 NW 20 16.09 Fair CLR 10 4 67% 8 75.44 0.0
03 05:55 W 15 16.09 Fair CLR 9 4 71% 7 75.44 0.0
03 05:35 W 17 16.09 Fair CLR 10 4 67% 8 75.41 0.0
03 05:15 W 19 16.09 Fair CLR 11 4 62% 75.41 0.0
03 04:55 W 17 16.09 Fair CLR 11 4 62% 75.41 0.0
03 04:35 W 15 16.09 Fair CLR 11 4 62% 75.44 0.0
03 04:15 SW 13 16.09 Fair CLR 12 3 54% 75.41 0.0
03 03:55 SW 11 16.09 Fair CLR 12 3 54% 75.44 0.0
03 03:35 SW 17 16.09 Partly Cloudy SCT110 13 2 47% 75.44 0.0
03 03:15 S 15 16.09 Mostly Cloudy BKN110 13 2 47% 75.46 0.0
03 02:55 S 20 16.09 Fair CLR 13 2 47% 75.46 0.0
03 02:35 S 22 16.09 Fair CLR 13 2 47% 75.49 0.0
03 02:15 S 22 16.09 Fair CLR 14 2 44% 75.51 0.0
03 01:55 S 26 G 31 16.09 Partly Cloudy SCT100 14 2 44% 75.54 0.0
03 01:35 S 24 G 35 16.09 Mostly Cloudy BKN100 15 2 42% 75.54 0.0
03 01:15 S 24 16.09 Mostly Cloudy BKN100 15 2 42% 75.57 0.0
03 00:55 S 11 16.09 Mostly Cloudy BKN100 14 3 48% 75.62 0.0
03 00:35 SW 19 G 28 16.09 Partly Cloudy SCT090 15 3 45% 75.67 0.0
03 00:15 S 15 16.09 Overcast SCT070 BKN080 OVC110 15 4 48% 75.67 0.0
02 23:55 S 15 16.09 Light Rain SCT065 BKN080 OVC110 15 5 51% 75.72 0.0
02 23:35 SW 7 G 46 16.09 Light Rain SCT065 SCT070 OVC100 17 4 42% 75.69 0.0
02 23:15 S 11 G 17 16.09 Mostly Cloudy BKN100 16 2 39% 75.72 0.0
02 22:55 S 19 16.09 Mostly Cloudy SCT060 SCT095 BKN110 16 2 39% 75.69 0.0
02 22:35 S 13 16.09 Overcast SCT060 OVC095 16 3 42% 75.77 0.0
02 22:15 S 11 16.09 Overcast SCT080 OVC095 16 3 42% 75.77 0.0
02 21:55 S 13 16.09 Overcast OVC095 16 3 42% 75.77 0.0
02 21:35 S 15 16.09 Mostly Cloudy BKN095 16 3 42% 75.77 0.0
02 21:15 S 13 16.09 Mostly Cloudy BKN095 17 3 39% 75.79 0.0
02 20:55 S 17 16.09 Mostly Cloudy BKN095 17 3 39% 75.79 0.0
02 20:35 S 7 16.09 Mostly Cloudy SCT070 SCT080 BKN095 18 2 34% 75.82 0.0
02 20:15 SW 9 16.09 Mostly Cloudy SCT065 BKN085 17 3 39% 75.84 0.0
02 19:55 SW 6 16.09 Mostly Cloudy SCT065 BKN085 17 3 39% 75.84 0.0
02 19:35 SW 7 16.09 Partly Cloudy SCT065 SCT085 18 3 37% 75.87 0.0
02 19:15 SW 13 G 65 16.09 Mostly Cloudy SCT044 SCT055 BKN095 18 3 37% 75.92 0.0
02 18:55 W 28 G 35 16.09 Partly Cloudy SCT095 19 2 32% 75.87 0.0
02 18:35 W 30 G 37 16.09 Partly Cloudy SCT095 19 2 32% 75.87 0.0
02 18:15 SW 24 16.09 Partly Cloudy SCT095 19 2 32% 75.87 0.0
02 17:55 SW 24 16.09 Partly Cloudy SCT095 19 2 32% 75.87 0.0
02 17:35 W 22 G 30 16.09 Partly Cloudy SCT095 20 2 30% 75.9 0.0
02 17:15 W 22 16.09 Partly Cloudy SCT095 20 3 33% 75.9 0.0
02 16:55 W 19 G 35 16.09 Partly Cloudy SCT095 21 3 31% 75.92 0.0
02 16:35 SW 22 G 28 16.09 Partly Cloudy SCT095 21 3 31% 75.95 0.0
02 16:15 W 20 G 28 16.09 Partly Cloudy SCT095 20 3 33% 75.97 0.0
02 15:55 SW 28 G 43 16.09 Partly Cloudy SCT095 20 3 33% 76 0.0
02 15:35 W 19 G 31 16.09 Fair CLR 19 3 35% 76.02 0.0
02 15:15 W 15 16.09 Partly Cloudy SCT095 19 3 35% 76.07 0.0
02 14:55 SW 19 G 30 16.09 Fair CLR 18 3 37% 76.1 0.0
02 14:35 SW 17 G 28 16.09 Fair CLR 18 2 34% 76.12 0.0
02 14:15 SW 9 G 30 16.09 Fair CLR 18 2 34% 76.15 0.0
02 13:55 SW 19 G 39 16.09 Fair CLR 17 2 37% 76.17 0.0
02 13:35 W 24 G 30 16.09 Fair CLR 17 2 37% 76.2 0.0
02 13:15 W 9 G 31 16.09 Fair CLR 17 2 37% 76.23 0.0
02 12:55 SW 19 G 26 16.09 Fair CLR 16 1 36% 76.25 0.0
02 12:35 SW 15 G 28 16.09 Fair CLR 16 1 36% 76.28 0.0
02 12:15 SW 13 16.09 Fair CLR 16 1 36% 76.33 0.0
02 11:55 W 19 G 28 16.09 Fair CLR 15 1 39% 76.35 0.0
02 11:35 SW 15 G 26 16.09 Fair CLR 14 1 41% 76.35 0.0
02 11:15 W 13 16.09 Fair CLR 14 0 39% 76.38 0.0
02 10:55 W 7 G 15 16.09 Fair CLR 13 -1 38% 76.4 0.0
02 10:35 W 17 16.09 Partly Cloudy SCT095 13 -1 38% 76.4 0.0
02 10:15 SW 17 16.09 Fair CLR 13 1 44% 76.43 0.0
02 09:55 W 17 16.09 Fair CLR 12 1 47% 76.43 0.0
02 09:35 SW 19 16.09 Fair CLR 12 1 47% 76.43 0.0
02 09:15 SW 15 16.09 Fair CLR 11 2 54% 76.45 0.0
02 08:55 W 13 16.09 Fair CLR 10 2 58% 8 76.45 0.0
02 08:35 W 11 16.09 Fair CLR 8 2 66% 6 76.48 0.0
02 08:15 W 7 16.09 Fair CLR 6 2 76% 5 76.48 0.0
02 07:55 SW 7 16.09 Fair CLR 4 1 81% 2 76.48 0.0
02 07:35 Calm 16.09 Fair CLR 3 1 87% 76.48 0.0
02 07:15 Calm 16.09 Fair CLR 2 -1 81% 76.48 0.0
02 06:55 Calm 16.09 Fair CLR 1 -1 87% 76.48 0.0
02 06:35 Calm 16.09 Fair CLR 1 -2 81% 76.48 0.0
02 06:15 W 6 16.09 Fair CLR 0 -2 87% 76.48 0.0
02 05:55 W 7 16.09 Fair CLR 0 -2 87% -2 76.48 0.0
02 05:35 W 7 16.09 Fair CLR 0 -2 87% -2 76.48 0.0
02 05:15 W 7 16.09 Fair CLR 0 -2 87% -2 76.48 0.0
02 04:55 W 7 16.09 Fair CLR 1 -1 87% -1 76.48 0.0
02 04:35 SW 7 16.09 Fair CLR 1 -1 87% -1 76.48 0.0
02 04:15 SW 7 16.09 Fair CLR 0 -2 87% -2 76.48 0.0
02 03:55 SW 6 16.09 Fair CLR 1 -2 81% 76.45 0.0
02 03:35 W 6 16.09 Fair CLR 1 -2 81% 76.48 0.0
02 03:15 W 9 16.09 Fair CLR 1 -1 87% -2 76.48 0.0
02 02:55 W 9 16.09 Fair CLR 2 -1 81% -0 76.48 0.0
02 02:35 SW 7 16.09 Fair CLR 2 -1 81% 0 76.48 0.0
02 02:15 SW 6 16.09 Fair CLR 3 -1 75% 76.48 0.0
02 01:55 SW 6 16.09 Fair CLR 3 -1 75% 76.5 0.0
02 01:35 SW 7 16.09 Fair CLR 3 -1 75% 1 76.5 0.0
02 01:15 W 9 16.09 Fair CLR 2 -1 81% -0 76.53 0.0
02 00:55 SW 7 16.09 Fair CLR 4 -1 70% 2 76.5 0.0
02 00:35 SW 6 16.09 Fair CLR 4 -2 65% 76.5 0.0
02 00:15 SW 7 16.09 Fair CLR 4 -2 65% 2 76.5 0.0
01 23:55 SW 6 16.09 Fair CLR 5 -2 61% 76.5 0.0
01 23:35 SW 6 16.09 Fair CLR 6 -2 57% 76.5 0.0
01 23:15 SW 6 16.09 Fair CLR 6 -2 57% 76.5 0.0
01 22:55 SW 6 16.09 Fair CLR 5 -1 66% 76.5 0.0
01 22:35 SW 6 16.09 Fair CLR 4 -1 70% 76.5 0.0
01 22:15 SW 7 16.09 Fair CLR 6 -1 61% 5 76.5 0.0
01 21:55 Calm 16.09 Fair CLR 7 -2 53% 76.5 0.0
01 21:35 Calm 16.09 Fair CLR 8 -3 46% 76.5 0.0
01 21:15 Calm 16.09 Fair CLR 9 -2 46% 76.5 0.0
01 20:55 Calm 16.09 Fair CLR 9 -2 46% 76.48 0.0
01 20:35 Calm 16.09 Partly Cloudy SCT075 9 -3 43% 76.45 0.0
01 20:15 Calm 16.09 Partly Cloudy SCT075 10 -3 40% 76.45 0.0
01 19:55 NE 6 16.09 Mostly Cloudy BKN075 11 -3 38% 76.43 0.0
01 19:35 NE 6 16.09 Overcast OVC075 11 -3 38% 76.43 0.0
01 19:15 NW 15 16.09 Overcast OVC075 11 -2 41% 76.43 0.0
01 18:55 NW 17 16.09 Mostly Cloudy BKN075 11 -2 41% 76.43 0.0
01 18:35 NW 15 16.09 Partly Cloudy SCT075 11 -2 41% 76.43 0.0
01 18:15 NW 13 16.09 Partly Cloudy SCT075 11 -2 41% 76.43 0.0
01 17:55 N 6 16.09 Mostly Cloudy BKN075 11 -3 38% 76.43 0.0
01 17:35 N 11 16.09 Partly Cloudy SCT075 11 -3 38% 76.43 0.0
01 17:15 NW 17 G 26 16.09 Partly Cloudy SCT065 12 -1 41% 76.43 0.0
01 16:55 N 11 16.09 Partly Cloudy SCT065 11 -2 41% 76.43 0.0
01 16:35 NW 20 G 26 16.09 Mostly Cloudy BKN065 11 -2 41% 76.43 0.0
01 16:15 NE 9 16.09 Mostly Cloudy BKN065 10 -3 40% 9 76.43 0.0
01 15:55 N 13 G 26 16.09 Mostly Cloudy BKN065 11 -1 44% 76.43 0.0
01 15:35 N 9 16.09 Mostly Cloudy BKN065 11 -2 41% 76.45 0.0
01 15:15 N 13 16.09 Partly Cloudy SCT065 11 -2 41% 76.45 0.0
01 14:55 N 9 G 15 16.09 Mostly Cloudy BKN065 11 -1 44% 76.45 0.0
01 14:35 N 15 16.09 Partly Cloudy SCT065 11 -1 44% 76.45 0.0
01 14:15 N 13 16.09 Partly Cloudy SCT055 11 -1 44% 76.45 0.0
01 13:55 N 9 16.09 Mostly Cloudy BKN055 10 -2 43% 9 76.45 0.0
01 13:35 NE 13 16.09 Mostly Cloudy BKN055 10 -1 47% 8 76.45 0.0
01 13:15 NE 11 G 26 16.09 Mostly Cloudy BKN055 9 -2 46% 8 76.48 0.0
01 12:55 NW 13 16.09 Mostly Cloudy BKN055 11 0 47% 76.45 0.0
01 12:35 NE 11 16.09 Mostly Cloudy BKN055 9 -1 50% 8 76.48 0.0
01 12:15 NE 7 16.09 Mostly Cloudy BKN055 9 -1 50% 8 76.48 0.0
01 11:55 N 6 16.09 Partly Cloudy SCT055 9 -1 50% 76.48 0.0
01 11:35 NE 13 16.09 Partly Cloudy SCT055 9 0 54% 7 76.45 0.0
01 11:15 N 9 16.09 Partly Cloudy SCT065 9 -1 50% 8 76.45 0.0
01 10:55 NE 9 16.09 Mostly Cloudy BKN065 8 -1 53% 7 76.45 0.0
01 10:35 NE 11 16.09 Mostly Cloudy BKN065 8 -1 53% 6 76.45 0.0
01 10:15 NE 6 16.09 Mostly Cloudy BKN065 7 -1 57% 76.45 0.0
01 09:55 E 11 16.09 Mostly Cloudy BKN065 7 -1 57% 5 76.45 0.0
01 09:35 E 11 16.09 Overcast OVC065 7 1 66% 5 76.45 0.0
01 09:15 NE 13 16.09 Mostly Cloudy BKN065 6 1 71% 4 76.45 0.0
01 08:55 NE 7 16.09 Mostly Cloudy BKN065 5 1 76% 4 76.45 0.0
01 08:35 NE 11 16.09 Partly Cloudy SCT065 5 1 76% 3 76.43 0.0
01 08:15 NE 11 16.09 Overcast OVC065 4 1 81% 2 76.43 0.0
01 07:55 NE 9 16.09 Overcast OVC065 4 1 81% 2 76.4 0.0
01 07:35 NE 11 16.09 Overcast OVC065 4 2 87% 2 76.4 0.0
01 07:15 N 7 16.09 Partly Cloudy SCT065 3 1 87% 1 76.38 0.0
01 06:55 Calm 16.09 Fair CLR 3 1 87% 76.35 0.0
01 06:35 Calm 16.09 Partly Cloudy SCT065 3 2 93% 76.33 0.0
01 06:15 Calm 16.09 Overcast OVC065 3 2 93% 76.33 0.0
01 05:55 N 6 16.09 Partly Cloudy SCT065 3 2 93% 76.3 0.0
01 05:35 NW 7 16.09 Fair CLR 3 2 93% 1 76.3 0.0
01 05:15 N 7 16.09 Fair CLR 3 2 93% 1 76.3 0.0
01 04:55 NW 7 16.09 Fair CLR 3 2 93% 1 76.3 0.0
01 04:35 NW 6 16.09 Fair CLR 3 3 100% 76.3 0.0
01 04:15 NW 7 16.09 Fair CLR 3 3 100% 1 76.3 0.0
01 03:55 NW 7 16.09 Partly Cloudy SCT090 3 3 100% 1 76.3 0.0
01 03:35 NW 7 11.27 Mostly Cloudy BKN090 3 3 100% 1 76.3 0.0
01 03:15 NW 9 11.27 Overcast OVC090 4 3 93% 2 76.3 0.0
01 02:55 W 9 16.09 Overcast OVC090 4 4 100% 2 76.3 0.0
01 02:35 W 7 16.09 Overcast OVC090 4 4 100% 2 76.3 0.0
01 02:15 W 7 16.09 Overcast OVC090 4 4 100% 2 76.3 0.0
Date Time (cdt) Wind (kph) Vis. (km) Weather Sky Cond. Air Dwpt Max. Min. Relative Humidity Wind Chill (°C) Heat Index (°C) altimeter (cm) sea level (mb) 1 hr 3 hr 6 hr
6 hour
Temperature (ºC) Pressure Precipitation (cm)